Terminal Aerodrome Forecast
Issued by NWS Midland/Odessa, TX

Home | Current Version | Previous Version | Text Only | Print | Product List | Glossary On
Versions: 1 2 3 4 5 6 7 8 9 10 11 12 13 14 15 16 17 18 19 20 21 22 23 24
000
FTUS44 KMAF 010535
TAFMAF
TAF
KMAF 010535Z 0106/0206 16007KT P6SM FEW200
     FM011200 18008KT P6SM OVC009
     FM011500 19011KT P6SM OVC010
     FM011700 19011KT P6SM SKC
     FM011900 17012G22KT P6SM SCT040 SCT250
     FM020200 17013KT P6SM SCT200=

USA.gov is the U.S. government's official web portal to all federal, state and local government web resources and services.